Content
SEND FEEDBACK

Daily
Averages
Monthly
Summary
Germany

UNTERSEE, GERMANY


Home > Europe > Germany
Elevation: 447 meters     Latitude: 47 40N     Longitude: 009 10E

WEATHER
 
SELECT A DAY
Number of Records: 197,323;   Date Range: 7/1/96 - 9/17/14
 
SHARE

PRINT THIS DATA

[ ← Previous Day ]
WEATHER ALMANAC - 31 JANUARY, 2013
[ Next Day → ]
[ °F ]   °C
Weather ElementAverageHighLow
Temperature7.8 °C10 °C (1:50 pm)3 °C (7:20 am)
Dewpoint0.3 °C4 °C (12:50 am)-4 °C (4:50 pm)
Humidity61 %81 % (11:43 pm)37 % (5:20 pm)
Barometer1021.3 hPa1024 hPa (1:20 am)1017.9 hPa (4:50 pm)
Wind Speed23.5 km/h37 km/h (5:20 pm)
Wind Gust59.2 km/h (5:20 pm)
Weather ElementAverage
Visibility10 km
Wind DirectionWSW (235.7 °)

Weather ElementTotal
Precipitation---
Heating Degree Days11.8 (Base 18.3)
Averaged from 46 records on 31 January, 2013
WEATHER CONDITIONS BREAKOUT
WIND DIRECTION BREAKOUT
WEATHER BY HOUR - 31 JANUARY, 2013
[ °F ]   °C
Local TimeTemperatureDewpointHumidityBarometerVisibilityWind DirectionWind SpeedGust SpeedPrecipitationEventsConditions
12:50 AM8 °C4 °C76 %1023 hPa10 kmWSW (240°)24.1 km/hScattered Clouds
1:20 AM8 °C3 °C71 %1024 hPa10 kmWSW (250°)22.2 km/h
1:50 AM8 °C3 °C71 %1024 hPa10 kmWSW (250°)25.9 km/h
2:20 AM7 °C2 °C71 %1024 hPa10 kmSW (230°)22.2 km/h
2:50 AM7 °C2 °C71 %1024 hPa10 kmWSW (240°)14.8 km/hPartly Cloudy
3:20 AM6 °C2 °C76 %1024 hPa10 kmSSW (210°)11.1 km/hMostly Cloudy
3:50 AM6 °C1 °C70 %1024 hPa10 kmWSW (240°)18.5 km/hPartly Cloudy
4:20 AM4 °C0 °C75 %1024 hPa10 kmWSW (240°)13 km/h
4:50 AM6 °C1 °C70 %1023 hPa10 kmSW (230°)20.4 km/h
5:20 AM6 °C0 °C66 %1024 hPa10 kmSW (230°)22.2 km/h
5:50 AM5 °C0 °C70 %1024 hPaWSW (240°)16.7 km/hClear
6:20 AM5 °C0 °C70 %1024 hPaSW (230°)20.4 km/hClear
6:50 AM5 °C-1 °C65 %1024 hPaSSW (210°)11.1 km/hClear
7:20 AM3 °C-1 °C75 %1024 hPa10 kmVariable5.6 km/hPartly Cloudy
7:50 AM3 °C-1 °C75 %1024 hPa10 kmSSW (200°)7.4 km/hPartly Cloudy
8:20 AM4 °C0 °C75 %1024 hPa10 kmSSW (210°)11.1 km/hPartly Cloudy
9:20 AM7 °C0 °C61 %1024 hPa10 kmSSW (210°)16.7 km/hPartly Cloudy
9:50 AM7 °C1 °C66 %1024 hPa10 kmSSW (210°)16.7 km/hPartly Cloudy
10:20 AM7 °C1 °C66 %1023 hPa10 kmSW (220°)18.5 km/hPartly Cloudy
10:50 AM8 °C1 °C62 %1023 hPa10 kmWSW (250°)25.9 km/hPartly Cloudy
11:20 AM8 °C2 °C66 %1023 hPa10 kmWSW (250°)18.5 km/hPartly Cloudy
11:50 AM9 °C1 °C58 %1022 hPa10 kmWSW (240°)22.2 km/hPartly Cloudy
12:20 PM9 °C2 °C62 %1022 hPaWSW (250°)20.4 km/hClear
12:50 PM9 °C2 °C62 %1021 hPa10 kmWSW (240°)18.5 km/hPartly Cloudy
1:50 PM10 °C1 °C54 %1020 hPa10 kmWSW (240°)27.8 km/hPartly Cloudy
2:20 PM10 °C0 °C50 %1020 hPa10 kmWSW (250°)25.9 km/hPartly Cloudy
2:50 PM10 °C1 °C54 %1020 hPaWest (260°)24.1 km/h42.6 km/hClear
3:20 PM10 °C-1 °C47 %1020 hPaWSW (250°)27.8 km/hClear
3:50 PM9 °C-1 °C50 %1019 hPaSW (230°)25.9 km/hClear
4:20 PM9 °C-2 °C46 %1019 hPaWSW (240°)24.1 km/hClear
4:50 PM9 °C-4 °C40 %1017.9 hPaWSW (250°)27.8 km/hClear
5:20 PM10 °C-4 °C37 %1017.9 hPaWSW (250°)37 km/h59.2 km/hClear
5:50 PM10 °C-3 °C40 %1017.9 hPa10 kmWSW (250°)33.3 km/hMostly Cloudy
6:20 PM9 °C-4 °C40 %1017.9 hPa10 kmWSW (250°)31.5 km/h53.8 km/hMostly Cloudy
6:50 PM10 °C-4 °C37 %1019 hPa10 kmWest (260°)35.2 km/h59.2 km/hOvercast
7:20 PM10 °C-3 °C40 %1019 hPa10 kmWSW (250°)31.5 km/hOvercast
7:50 PM10 °C-2 °C43 %1017.9 hPa10 kmWest (260°)27.8 km/hOvercast
8:20 PM10 °C-2 °C43 %1017.9 hPa10 kmWest (260°)25.9 km/hOvercast
8:50 PM10 °C-1 °C47 %1017.9 hPa10 kmWSW (250°)29.6 km/hRainLight Rain
9:20 PM9 °C1 °C58 %1017.9 hPa10 kmWSW (250°)37 km/hOvercast
9:50 PM9 °C2 °C62 %1019 hPa10 kmWSW (250°)37 km/hMostly Cloudy
10:20 PM8 °C3 °C71 %1017.9 hPa10 kmWSW (250°)35.2 km/hOvercast
10:50 PM9 °C3 °C66 %1017.9 hPa10 kmWSW (250°)35.2 km/hMostly Cloudy
11:20 PM8 °C3 °C71 %1019 hPa10 kmWSW (250°)27.8 km/hRainRain Showers
11:43 PM7 °C4 °C81 %1019 hPa10 kmWest (260°)25.9 km/h48.1 km/hRainRain Showers
11:50 PM7 °C4 °C81 %1019 hPa10 kmWest (260°)25.9 km/h48.1 km/hRainRain Showers
Hourly data recorded from EDNY, located 0 kilometers away from Untersee, Germany







STORIES FROM OUR PARTNERS